createdAt,value
2023-04-20T00:00:48.333Z,9.21
2023-04-20T00:03:18.455Z,9.13
2023-04-20T00:05:49.280Z,9.02
2023-04-20T00:08:17.607Z,8.71
2023-04-20T00:10:46.054Z,9.00
2023-04-20T00:13:13.960Z,8.78
2023-04-20T00:15:41.664Z,8.88
2023-04-20T00:18:09.438Z,8.78
2023-04-20T00:20:37.324Z,8.53
2023-04-20T00:23:06.293Z,8.89
2023-04-20T00:25:34.142Z,8.70
2023-04-20T00:28:02.004Z,8.97
2023-04-20T00:30:29.712Z,8.76
2023-04-20T00:32:58.600Z,8.81
2023-04-20T00:35:26.433Z,8.51
2023-04-20T00:37:54.204Z,8.76
2023-04-20T00:40:21.865Z,8.77
2023-04-20T00:42:49.607Z,8.73
2023-04-20T00:45:18.192Z,8.80
2023-04-20T00:47:46.358Z,8.77
2023-04-20T00:50:14.134Z,8.80
2023-04-20T00:52:42.004Z,8.35
2023-04-20T00:55:09.907Z,8.58
2023-04-20T00:57:39.629Z,8.65
2023-04-20T01:00:08.057Z,7.76
2023-04-20T01:02:37.118Z,8.51
2023-04-20T01:05:05.011Z,8.26
2023-04-20T01:07:34.216Z,8.45
2023-04-20T01:10:02.004Z,8.40
2023-04-20T01:12:29.839Z,8.17
2023-04-20T01:14:57.610Z,7.10
2023-04-20T01:17:26.134Z,7.09
2023-04-20T01:19:53.902Z,7.90
2023-04-20T01:22:21.795Z,7.83
2023-04-20T01:24:49.467Z,8.02
2023-04-20T01:27:17.738Z,7.39
2023-04-20T01:29:45.650Z,7.60
2023-04-20T01:32:13.445Z,7.89
2023-04-20T01:34:41.741Z,8.10
2023-04-20T01:37:09.800Z,7.83
2023-04-20T01:39:40.106Z,7.77
2023-04-20T01:42:08.632Z,8.08
2023-04-20T01:44:36.290Z,8.11
2023-04-20T01:47:04.605Z,8.10
2023-04-20T01:49:32.523Z,7.62
2023-04-20T01:52:00.350Z,8.01
2023-04-20T01:54:28.568Z,8.05
2023-04-20T01:56:56.322Z,8.07
2023-04-20T01:59:24.176Z,8.12
2023-04-20T02:01:52.068Z,8.32
2023-04-20T02:04:20.806Z,8.40
2023-04-20T02:06:48.691Z,8.20
2023-04-20T02:09:17.133Z,7.81
2023-04-20T02:11:45.140Z,7.93
2023-04-20T02:14:12.841Z,7.74
2023-04-20T02:16:41.555Z,8.00
2023-04-20T02:19:09.986Z,8.05
2023-04-20T02:21:38.012Z,8.13
2023-04-20T02:24:06.376Z,8.21
2023-04-20T02:26:34.121Z,8.14
2023-04-20T02:29:01.834Z,8.18
2023-04-20T02:31:29.588Z,8.09
2023-04-20T02:33:57.339Z,8.30
2023-04-20T02:36:28.329Z,8.29
2023-04-20T02:38:56.291Z,8.34
2023-04-20T02:41:24.005Z,8.29
2023-04-20T02:43:51.856Z,8.35
2023-04-20T02:46:20.609Z,8.35
2023-04-20T02:48:49.295Z,8.23
2023-04-20T02:51:17.160Z,8.26
2023-04-20T02:53:47.244Z,8.30
2023-04-20T02:56:28.084Z,8.35
2023-04-20T02:58:59.602Z,8.19
2023-04-20T03:01:47.607Z,8.29
2023-04-20T03:04:19.432Z,8.12
2023-04-20T03:06:55.276Z,8.05
2023-04-20T03:09:28.231Z,7.65
2023-04-20T03:12:02.623Z,7.83
2023-04-20T03:14:52.188Z,7.61
2023-04-20T03:17:25.177Z,7.95
2023-04-20T03:19:53.103Z,7.94
2023-04-20T03:22:21.233Z,7.91
2023-04-20T03:24:53.629Z,8.06
2023-04-20T03:27:51.085Z,8.09
2023-04-20T03:30:19.767Z,8.01
2023-04-20T03:32:52.782Z,8.09
2023-04-20T03:35:21.108Z,8.08
2023-04-20T03:37:49.107Z,7.94
2023-04-20T03:40:16.844Z,7.94
2023-04-20T03:42:44.772Z,8.01
2023-04-20T03:45:12.570Z,7.76
2023-04-20T03:47:40.636Z,7.99
2023-04-20T03:50:08.646Z,8.00
2023-04-20T03:52:36.442Z,8.09
2023-04-20T03:55:06.598Z,8.10
2023-04-20T03:57:36.051Z,7.60
2023-04-20T04:00:05.817Z,7.73
2023-04-20T04:02:46.142Z,7.75
2023-04-20T04:05:18.531Z,8.04
2023-04-20T04:07:46.301Z,8.11
2023-04-20T04:10:14.561Z,7.94
2023-04-20T04:12:42.310Z,8.13
2023-04-20T04:15:10.926Z,8.16
2023-04-20T04:17:47.991Z,8.05
2023-04-20T04:20:15.853Z,7.92
2023-04-20T04:22:45.023Z,7.98
2023-04-20T04:25:42.483Z,8.01
2023-04-20T04:28:14.696Z,7.99
2023-04-20T04:30:52.411Z,8.07
2023-04-20T04:33:20.356Z,8.15
2023-04-20T04:35:50.600Z,8.11
2023-04-20T04:38:18.446Z,8.17
2023-04-20T04:40:49.929Z,8.16
2023-04-20T04:43:19.527Z,8.15
2023-04-20T04:45:58.467Z,8.19
2023-04-20T04:48:27.377Z,8.26
2023-04-20T04:50:55.061Z,8.19
2023-04-20T04:53:22.859Z,8.15
2023-04-20T04:55:50.555Z,8.19
2023-04-20T04:58:18.249Z,8.18
2023-04-20T05:00:45.944Z,8.25
2023-04-20T05:03:13.889Z,8.37
2023-04-20T05:05:41.768Z,8.49
2023-04-20T05:08:09.506Z,8.37
2023-04-20T05:10:37.212Z,8.47
2023-04-20T05:13:04.958Z,8.36
2023-04-20T05:15:32.820Z,8.50
2023-04-20T05:18:02.323Z,8.55
2023-04-20T05:20:30.177Z,8.53
2023-04-20T05:22:58.001Z,8.70
2023-04-20T05:25:25.840Z,8.67
2023-04-20T05:27:53.572Z,8.69
2023-04-20T05:30:22.240Z,8.73
2023-04-20T05:32:52.343Z,8.75
2023-04-20T05:35:21.623Z,8.72
2023-04-20T05:37:49.461Z,8.74
2023-04-20T05:40:17.238Z,8.68
2023-04-20T05:42:44.928Z,8.76
2023-04-20T05:45:12.684Z,8.96
2023-04-20T05:47:40.408Z,9.03
2023-04-20T05:50:08.983Z,8.98
2023-04-20T05:52:36.805Z,9.04
2023-04-20T05:55:04.816Z,9.04
2023-04-20T05:57:32.525Z,9.01
2023-04-20T06:00:00.772Z,9.02
2023-04-20T06:02:40.906Z,9.19
2023-04-20T06:05:10.469Z,9.35
2023-04-20T06:07:38.430Z,9.39
2023-04-20T06:10:06.834Z,9.33
2023-04-20T06:12:35.025Z,9.36
2023-04-20T06:15:03.937Z,9.23
2023-04-20T06:17:31.795Z,9.37
2023-04-20T06:19:59.524Z,9.55
2023-04-20T06:22:27.213Z,9.63
2023-04-20T06:24:55.015Z,9.73
2023-04-20T06:27:22.717Z,9.90
2023-04-20T06:29:50.967Z,9.87
2023-04-20T06:32:18.657Z,9.65
2023-04-20T06:34:47.715Z,9.62
2023-04-20T06:37:15.681Z,9.71
2023-04-20T06:39:43.477Z,9.51
2023-04-20T06:42:11.268Z,9.52
2023-04-20T06:44:41.240Z,9.68
2023-04-20T06:47:08.974Z,9.51
2023-04-20T06:49:37.659Z,9.34
2023-04-20T06:52:06.027Z,9.88
2023-04-20T06:54:33.816Z,9.99
2023-04-20T06:57:01.668Z,9.84
2023-04-20T06:59:29.631Z,10.05
2023-04-20T07:01:57.399Z,10.11
2023-04-20T07:04:25.459Z,10.17
2023-04-20T07:06:54.283Z,10.24
2023-04-20T07:09:23.198Z,10.12
2023-04-20T07:11:50.875Z,10.22
2023-04-20T07:14:18.723Z,10.42
2023-04-20T07:16:46.520Z,10.47
2023-04-20T07:19:14.293Z,10.57
2023-04-20T07:21:42.002Z,10.63
2023-04-20T07:24:10.319Z,10.22
2023-04-20T07:26:38.051Z,10.49
2023-04-20T07:29:06.249Z,10.31
2023-04-20T07:31:35.522Z,10.65
2023-04-20T07:34:03.451Z,10.79
2023-04-20T07:36:31.465Z,10.70
2023-04-20T07:38:59.192Z,10.78
2023-04-20T07:41:26.874Z,11.02
2023-04-20T07:43:54.615Z,11.10
2023-04-20T07:46:22.855Z,11.12
2023-04-20T07:48:52.156Z,10.87
2023-04-20T07:51:19.973Z,11.11
2023-04-20T07:53:48.697Z,11.12
2023-04-20T07:56:16.360Z,11.06
2023-04-20T07:58:44.200Z,11.03
2023-04-20T08:01:14.366Z,11.31
2023-04-20T08:03:43.393Z,11.15
2023-04-20T08:06:11.201Z,11.50
2023-04-20T08:08:38.975Z,11.53
2023-04-20T08:11:08.152Z,11.80
2023-04-20T08:13:36.709Z,11.57
2023-04-20T08:16:04.657Z,11.92
2023-04-20T08:18:32.488Z,12.10
2023-04-20T08:21:00.310Z,12.29
2023-04-20T08:23:28.692Z,12.46
2023-04-20T08:25:56.759Z,12.55
2023-04-20T08:30:57.532Z,12.69
2023-04-20T08:33:25.921Z,13.06
2023-04-20T08:35:54.347Z,13.25
2023-04-20T08:38:32.764Z,12.71
2023-04-20T08:41:02.291Z,13.25
2023-04-20T08:43:30.037Z,13.40
2023-04-20T08:45:59.310Z,13.60
2023-04-20T08:48:27.402Z,13.81
2023-04-20T08:50:55.644Z,13.97
2023-04-20T08:53:23.383Z,13.85
2023-04-20T08:55:51.326Z,13.28
2023-04-20T08:58:19.049Z,13.36
2023-04-20T09:00:49.931Z,13.99
2023-04-20T09:03:17.848Z,14.10
2023-04-20T09:05:46.558Z,13.87
2023-04-20T09:08:15.668Z,13.61
2023-04-20T09:10:44.112Z,14.48
2023-04-20T09:13:24.100Z,14.60
2023-04-20T09:15:51.964Z,14.06
2023-04-20T09:18:19.887Z,13.71
2023-04-20T09:20:47.632Z,13.08
2023-04-20T09:23:19.120Z,13.96
2023-04-20T09:25:50.104Z,14.70
2023-04-20T09:28:18.305Z,14.52
2023-04-20T09:30:47.369Z,15.06
2023-04-20T09:33:15.403Z,15.15
2023-04-20T09:35:43.734Z,14.29
2023-04-20T09:38:15.342Z,14.62
2023-04-20T09:40:43.167Z,14.97
2023-04-20T09:43:15.403Z,15.99
2023-04-20T09:45:43.369Z,15.27
2023-04-20T09:48:11.151Z,15.22
2023-04-20T09:50:48.412Z,15.25
2023-04-20T09:53:17.293Z,14.70
2023-04-20T09:55:47.207Z,15.04
2023-04-20T09:58:15.003Z,14.58
2023-04-20T10:00:43.081Z,15.94
2023-04-20T10:03:11.459Z,15.32
2023-04-20T10:05:39.962Z,14.97
2023-04-20T10:08:07.888Z,15.35
2023-04-20T10:10:46.302Z,15.77
2023-04-20T10:13:14.670Z,16.02
2023-04-20T10:15:42.528Z,15.55
2023-04-20T10:18:23.467Z,15.83
2023-04-20T10:20:51.952Z,16.11
2023-04-20T10:23:20.254Z,16.97
2023-04-20T10:26:01.773Z,16.14
2023-04-20T10:28:42.868Z,16.43
2023-04-20T10:31:15.584Z,16.95
2023-04-20T10:33:51.906Z,17.24
2023-04-20T10:36:37.265Z,16.92
2023-04-20T10:39:26.108Z,17.19
2023-04-20T10:41:54.554Z,17.54
2023-04-20T10:44:22.354Z,17.14
2023-04-20T10:46:51.038Z,16.96
2023-04-20T10:49:19.259Z,17.16
2023-04-20T10:51:50.804Z,16.81
2023-04-20T10:54:18.706Z,17.11
2023-04-20T10:56:47.446Z,17.11
2023-04-20T10:59:19.157Z,17.00
2023-04-20T11:01:47.310Z,17.13
2023-04-20T11:04:18.347Z,17.19
2023-04-20T11:06:48.110Z,17.06
2023-04-20T11:09:28.416Z,15.60
2023-04-20T11:12:04.207Z,16.42
2023-04-20T11:14:38.383Z,16.59
2023-04-20T11:17:06.282Z,16.58
2023-04-20T11:19:34.984Z,16.57
2023-04-20T11:22:03.731Z,16.71
2023-04-20T11:24:32.808Z,15.91
2023-04-20T11:27:01.971Z,16.67
2023-04-20T11:29:36.728Z,16.16
2023-04-20T11:32:08.475Z,15.42
2023-04-20T11:34:37.313Z,16.05
2023-04-20T11:37:08.469Z,15.58
2023-04-20T11:39:36.687Z,14.94
2023-04-20T11:42:04.893Z,15.91
2023-04-20T11:44:33.007Z,16.03
2023-04-20T11:47:01.921Z,16.36
2023-04-20T11:49:29.684Z,16.90
2023-04-20T11:51:57.421Z,17.00
2023-04-20T11:54:27.271Z,16.62
2023-04-20T11:56:55.167Z,16.94
2023-04-20T11:59:22.865Z,16.23
2023-04-20T12:01:50.634Z,15.47
2023-04-20T12:04:18.554Z,15.31
2023-04-20T12:06:46.571Z,15.31
2023-04-20T12:09:14.864Z,14.54
2023-04-20T12:11:42.636Z,13.05
2023-04-20T12:14:10.309Z,12.81
2023-04-20T12:16:38.112Z,13.67
2023-04-20T12:19:05.832Z,13.39
2023-04-20T12:21:33.523Z,13.37
2023-04-20T12:24:01.788Z,13.47
2023-04-20T12:26:37.820Z,13.50
2023-04-20T12:29:07.226Z,14.14
2023-04-20T12:31:35.944Z,14.46
2023-04-20T12:34:04.222Z,14.40
2023-04-20T12:36:32.546Z,13.42
2023-04-20T12:39:00.724Z,11.83
2023-04-20T12:41:28.484Z,11.44
2023-04-20T12:43:56.473Z,11.42
2023-04-20T12:46:24.218Z,11.82
2023-04-20T12:48:52.154Z,12.48
2023-04-20T12:51:19.872Z,12.25
2023-04-20T12:53:47.606Z,12.32
2023-04-20T12:56:16.806Z,12.59
2023-04-20T12:58:44.768Z,13.39
2023-04-20T13:01:12.511Z,13.32
2023-04-20T13:03:42.534Z,12.79
2023-04-20T13:06:14.101Z,12.82
2023-04-20T13:08:42.243Z,12.83
2023-04-20T13:11:15.405Z,12.84
2023-04-20T13:13:43.147Z,13.42
2023-04-20T13:16:11.010Z,13.74
2023-04-20T13:18:38.756Z,14.12
2023-04-20T13:21:06.462Z,13.97
2023-04-20T13:23:34.321Z,14.36
2023-04-20T13:26:02.052Z,13.77
2023-04-20T13:28:29.886Z,13.59
2023-04-20T13:30:57.664Z,13.70
2023-04-20T13:33:25.914Z,13.67
2023-04-20T13:35:53.681Z,14.18
2023-04-20T13:38:21.873Z,13.77
2023-04-20T13:40:49.630Z,14.69
2023-04-20T13:43:19.378Z,14.85
2023-04-20T13:45:48.631Z,14.43
2023-04-20T13:48:16.454Z,14.27
2023-04-20T13:50:44.201Z,14.06
2023-04-20T13:53:11.970Z,14.65
2023-04-20T13:55:40.111Z,15.45
2023-04-20T13:58:07.887Z,15.31
2023-04-20T14:00:35.582Z,14.94
2023-04-20T14:03:05.571Z,14.43
2023-04-20T14:05:33.352Z,14.73
2023-04-20T14:08:01.751Z,13.63
2023-04-20T14:10:29.672Z,13.56
2023-04-20T14:12:57.496Z,14.27
2023-04-20T14:15:25.403Z,14.71
2023-04-20T14:17:53.222Z,15.00
2023-04-20T14:20:21.318Z,14.39
2023-04-20T14:22:49.081Z,13.79
2023-04-20T14:25:16.889Z,14.23
2023-04-20T14:27:44.759Z,13.55
2023-04-20T14:30:13.158Z,13.69
2023-04-20T14:32:41.438Z,14.81
2023-04-20T14:35:09.341Z,14.36
2023-04-20T14:37:37.189Z,13.85
2023-04-20T14:40:07.244Z,13.42
2023-04-20T14:42:35.028Z,13.57
2023-04-20T14:45:02.758Z,14.01
2023-04-20T14:47:30.740Z,14.53
2023-04-20T14:49:58.716Z,13.31
2023-04-20T14:52:26.875Z,13.37
2023-04-20T14:54:54.667Z,13.42
2023-04-20T14:57:22.569Z,13.40
2023-04-20T14:59:50.285Z,13.69
2023-04-20T15:02:20.863Z,13.38
2023-04-20T15:04:48.932Z,13.68
2023-04-20T15:07:17.908Z,13.95
2023-04-20T15:09:45.988Z,13.71
2023-04-20T15:12:13.749Z,13.99
2023-04-20T15:14:41.667Z,14.31
2023-04-20T15:17:09.423Z,14.46
2023-04-20T15:19:37.170Z,14.58
2023-04-20T15:22:04.865Z,14.73
2023-04-20T15:24:32.892Z,14.47
2023-04-20T15:27:01.601Z,14.30
2023-04-20T15:29:29.621Z,14.39
2023-04-20T15:31:57.425Z,14.34
2023-04-20T15:34:25.496Z,11.13
2023-04-20T15:36:53.163Z,10.20
2023-04-20T15:39:20.991Z,12.18
2023-04-20T15:41:48.649Z,12.38
2023-04-20T15:44:16.783Z,11.67
2023-04-20T15:46:44.769Z,12.20
2023-04-20T15:49:12.490Z,11.81
2023-04-20T15:51:40.913Z,12.62
2023-04-20T15:54:09.752Z,12.69
2023-04-20T15:56:37.458Z,11.68
2023-04-20T15:59:05.394Z,12.31
2023-04-20T16:01:33.713Z,12.60
2023-04-20T16:04:01.833Z,12.29
2023-04-20T16:06:29.723Z,12.65
2023-04-20T16:08:57.769Z,12.85
2023-04-20T16:11:25.528Z,12.81
2023-04-20T16:13:55.454Z,12.63
2023-04-20T16:16:23.216Z,11.96
2023-04-20T16:18:52.088Z,12.32
2023-04-20T16:21:19.801Z,13.01
2023-04-20T16:23:47.696Z,13.23
2023-04-20T16:26:16.107Z,12.97
2023-04-20T16:28:43.840Z,12.73
2023-04-20T16:31:11.680Z,12.93
2023-04-20T16:33:39.763Z,12.68
2023-04-20T16:36:07.769Z,12.67
2023-04-20T16:38:35.542Z,12.69
2023-04-20T16:41:03.530Z,12.92
2023-04-20T16:43:31.540Z,12.78
2023-04-20T16:45:59.251Z,12.48
2023-04-20T16:48:27.069Z,12.57
2023-04-20T16:50:54.778Z,12.55
2023-04-20T16:53:22.534Z,12.45
2023-04-20T16:55:50.420Z,11.98
2023-04-20T16:58:18.166Z,12.19
2023-04-20T17:00:45.912Z,12.34
2023-04-20T17:03:15.061Z,11.38
2023-04-20T17:05:42.984Z,11.31
2023-04-20T17:08:10.810Z,11.73
2023-04-20T17:10:39.317Z,10.90
2023-04-20T17:13:07.142Z,11.20
2023-04-20T17:15:34.857Z,10.97
2023-04-20T17:18:02.696Z,11.11
2023-04-20T17:20:30.602Z,10.88
2023-04-20T17:22:58.411Z,10.70
2023-04-20T17:25:26.201Z,10.43
2023-04-20T17:27:53.979Z,10.50
2023-04-20T17:30:21.684Z,10.42
2023-04-20T17:32:49.371Z,10.43
2023-04-20T17:35:17.434Z,10.21
2023-04-20T17:37:45.730Z,10.04
2023-04-20T17:40:13.460Z,9.92
2023-04-20T17:42:41.224Z,9.54
2023-04-20T17:45:09.221Z,9.29
2023-04-20T17:47:37.038Z,8.85
2023-04-20T17:50:05.285Z,8.82
2023-04-20T17:52:33.040Z,9.36
2023-04-20T17:55:00.926Z,9.15
2023-04-20T17:57:29.021Z,9.11
2023-04-20T17:59:56.756Z,8.47
2023-04-20T18:02:25.036Z,8.60
2023-04-20T18:04:55.236Z,8.78
2023-04-20T18:07:23.030Z,8.45
2023-04-20T18:09:50.760Z,8.71
2023-04-20T18:12:18.446Z,8.56
2023-04-20T18:14:46.244Z,8.53
2023-04-20T18:17:14.022Z,9.00
2023-04-20T18:19:41.817Z,8.98
2023-04-20T18:22:09.515Z,9.32
2023-04-20T18:24:38.000Z,9.80
2023-04-20T18:27:05.726Z,9.60
2023-04-20T18:29:33.465Z,9.97
2023-04-20T18:32:01.499Z,10.18
2023-04-20T18:34:31.952Z,10.24
2023-04-20T18:36:59.738Z,9.94
2023-04-20T18:39:27.527Z,9.71
2023-04-20T18:41:55.351Z,9.80
2023-04-20T18:44:23.279Z,10.13
2023-04-20T18:46:51.393Z,10.24
2023-04-20T18:49:19.209Z,9.66
2023-04-20T18:51:47.130Z,10.08
2023-04-20T18:54:14.821Z,10.17
2023-04-20T18:56:42.532Z,10.02
2023-04-20T18:59:10.825Z,10.15
2023-04-20T19:01:40.569Z,10.17
2023-04-20T19:04:08.971Z,10.07
2023-04-20T19:06:36.790Z,9.54
2023-04-20T19:09:07.305Z,9.59
2023-04-20T19:11:35.783Z,9.41
2023-04-20T19:14:03.482Z,9.71
2023-04-20T19:16:31.764Z,9.66
2023-04-20T19:18:59.681Z,9.37
2023-04-20T19:21:27.461Z,9.57
2023-04-20T19:23:55.605Z,9.55
2023-04-20T19:26:24.161Z,9.40
2023-04-20T19:28:51.999Z,9.14
2023-04-20T19:31:19.809Z,9.14
2023-04-20T19:33:47.562Z,9.13
2023-04-20T19:36:15.281Z,9.03
2023-04-20T19:38:45.911Z,9.25
2023-04-20T19:41:13.711Z,9.29
2023-04-20T19:43:41.381Z,9.28
2023-04-20T19:46:09.841Z,9.38
2023-04-20T19:48:37.815Z,9.14
2023-04-20T19:51:06.630Z,8.82
2023-04-20T19:53:34.539Z,8.77
2023-04-20T19:56:04.199Z,8.95
2023-04-20T19:58:33.409Z,9.11
2023-04-20T20:01:01.257Z,8.40
2023-04-20T20:03:29.320Z,8.39
2023-04-20T20:05:57.175Z,8.57
2023-04-20T20:08:24.881Z,8.92
2023-04-20T20:10:52.766Z,9.05
2023-04-20T20:13:20.564Z,8.99
2023-04-20T20:15:48.307Z,9.17
2023-04-20T20:18:16.166Z,9.31
2023-04-20T20:20:43.873Z,8.29
2023-04-20T20:23:11.627Z,8.26
2023-04-20T20:25:39.927Z,8.43
2023-04-20T20:28:07.652Z,8.61
2023-04-20T20:30:35.436Z,8.88
2023-04-20T20:33:03.732Z,8.99
2023-04-20T20:35:33.270Z,8.98
2023-04-20T20:38:01.151Z,9.09
2023-04-20T20:40:28.917Z,9.18
2023-04-20T20:42:57.486Z,8.66
2023-04-20T20:45:25.213Z,8.83
2023-04-20T20:47:52.943Z,8.94
2023-04-20T20:50:20.798Z,8.87
2023-04-20T20:52:48.889Z,8.95
2023-04-20T20:55:16.609Z,8.94
2023-04-20T20:57:44.426Z,9.03
2023-04-20T21:00:12.570Z,9.03
2023-04-20T21:02:40.471Z,9.13
2023-04-20T21:05:08.964Z,9.16
2023-04-20T21:07:36.699Z,9.22
2023-04-20T21:10:04.800Z,8.81
2023-04-20T21:12:32.522Z,9.00
2023-04-20T21:15:00.551Z,9.10
2023-04-20T21:17:28.250Z,9.20
2023-04-20T21:19:56.081Z,9.10
2023-04-20T21:22:23.762Z,8.88
2023-04-20T21:24:51.490Z,9.15
2023-04-20T21:27:19.173Z,9.11
2023-04-20T21:29:46.934Z,8.97
2023-04-20T21:32:14.658Z,9.19
2023-04-20T21:34:42.470Z,9.25
2023-04-20T21:37:11.093Z,9.05
2023-04-20T21:39:38.865Z,9.02
2023-04-20T21:42:06.603Z,8.45
2023-04-20T21:44:34.334Z,8.86
2023-04-20T21:47:02.751Z,8.81
2023-04-20T21:49:30.581Z,8.87
2023-04-20T21:51:58.249Z,8.83
2023-04-20T21:54:25.960Z,8.82
2023-04-20T21:56:53.661Z,9.02
2023-04-20T21:59:21.372Z,8.95
2023-04-20T22:01:49.079Z,8.73
2023-04-20T22:04:17.226Z,8.85
2023-04-20T22:06:45.600Z,9.00
2023-04-20T22:09:13.448Z,8.92
2023-04-20T22:11:41.143Z,8.91
2023-04-20T22:14:08.886Z,8.07
2023-04-20T22:16:36.648Z,7.99
2023-04-20T22:19:04.593Z,8.29
2023-04-20T22:21:32.270Z,8.58
2023-04-20T22:23:59.967Z,8.65
2023-04-20T22:26:27.651Z,8.71
2023-04-20T22:28:55.408Z,8.72
2023-04-20T22:31:23.128Z,8.44
2023-04-20T22:33:50.872Z,8.03
2023-04-20T22:36:18.570Z,8.25
2023-04-20T22:38:46.321Z,8.18
2023-04-20T22:41:16.678Z,8.28
2023-04-20T22:43:45.186Z,8.41
2023-04-20T22:46:12.917Z,8.23
2023-04-20T22:48:41.764Z,8.24
2023-04-20T22:51:09.412Z,8.42
2023-04-20T22:53:37.092Z,8.54
2023-04-20T22:56:08.020Z,8.63
2023-04-20T22:58:35.819Z,8.73
2023-04-20T23:01:03.570Z,8.69
2023-04-20T23:03:32.140Z,8.49
2023-04-20T23:06:00.256Z,8.34
2023-04-20T23:08:28.342Z,8.52
2023-04-20T23:10:56.191Z,8.57
2023-04-20T23:13:26.416Z,8.71
2023-04-20T23:15:54.473Z,8.38
2023-04-20T23:18:22.247Z,8.60
2023-04-20T23:20:49.966Z,8.46
2023-04-20T23:23:18.068Z,8.27
2023-04-20T23:25:45.843Z,8.51
2023-04-20T23:28:13.499Z,8.36
2023-04-20T23:30:41.342Z,8.52
2023-04-20T23:33:09.115Z,8.37
2023-04-20T23:35:36.990Z,8.56
2023-04-20T23:38:04.729Z,8.34
2023-04-20T23:40:32.425Z,8.16
2023-04-20T23:43:00.174Z,8.14
2023-04-20T23:45:28.033Z,7.95
2023-04-20T23:47:56.022Z,7.77
2023-04-20T23:50:23.792Z,8.07
2023-04-20T23:52:51.535Z,7.94
2023-04-20T23:55:19.313Z,7.71
2023-04-20T23:57:47.061Z,7.46
